sensor_id;sensor_type;location;lat;lon;timestamp;P1;durP1;ratioP1;P2;durP2;ratioP2
51475;SDS011;37554;50.362;7.568;2023-06-10T00:01:26;4.20;;;3.80;;
51475;SDS011;37554;50.362;7.568;2023-06-10T00:03:52;3.92;;;3.53;;
51475;SDS011;37554;50.362;7.568;2023-06-10T00:06:19;4.15;;;3.67;;
51475;SDS011;37554;50.362;7.568;2023-06-10T00:08:46;4.00;;;3.55;;
51475;SDS011;37554;50.362;7.568;2023-06-10T00:11:12;5.55;;;3.92;;
51475;SDS011;37554;50.362;7.568;2023-06-10T00:13:38;4.00;;;3.70;;
51475;SDS011;37554;50.362;7.568;2023-06-10T00:16:05;4.88;;;3.90;;
51475;SDS011;37554;50.362;7.568;2023-06-10T00:18:30;4.25;;;3.85;;
51475;SDS011;37554;50.362;7.568;2023-06-10T00:20:56;5.22;;;3.92;;
51475;SDS011;37554;50.362;7.568;2023-06-10T00:23:28;4.18;;;3.85;;
51475;SDS011;37554;50.362;7.568;2023-06-10T00:25:55;4.43;;;4.03;;
51475;SDS011;37554;50.362;7.568;2023-06-10T00:28:22;5.15;;;3.63;;
51475;SDS011;37554;50.362;7.568;2023-06-10T00:30:48;4.30;;;3.95;;
51475;SDS011;37554;50.362;7.568;2023-06-10T00:33:14;4.05;;;3.75;;
51475;SDS011;37554;50.362;7.568;2023-06-10T00:35:40;3.97;;;3.67;;
51475;SDS011;37554;50.362;7.568;2023-06-10T00:38:05;4.35;;;3.80;;
51475;SDS011;37554;50.362;7.568;2023-06-10T00:40:33;4.72;;;3.75;;
51475;SDS011;37554;50.362;7.568;2023-06-10T00:45:29;3.88;;;3.47;;
51475;SDS011;37554;50.362;7.568;2023-06-10T00:47:55;4.53;;;3.47;;
51475;SDS011;37554;50.362;7.568;2023-06-10T00:50:21;4.22;;;3.88;;
51475;SDS011;37554;50.362;7.568;2023-06-10T00:52:46;4.10;;;3.80;;
51475;SDS011;37554;50.362;7.568;2023-06-10T00:55:13;3.95;;;3.65;;
51475;SDS011;37554;50.362;7.568;2023-06-10T00:57:41;3.60;;;3.30;;
51475;SDS011;37554;50.362;7.568;2023-06-10T01:00:10;4.30;;;3.90;;
51475;SDS011;37554;50.362;7.568;2023-06-10T01:02:36;7.10;;;4.20;;
51475;SDS011;37554;50.362;7.568;2023-06-10T01:05:01;4.10;;;3.70;;
51475;SDS011;37554;50.362;7.568;2023-06-10T01:07:28;4.10;;;3.70;;
51475;SDS011;37554;50.362;7.568;2023-06-10T01:12:45;5.18;;;3.63;;
51475;SDS011;37554;50.362;7.568;2023-06-10T01:15:17;4.65;;;3.90;;
51475;SDS011;37554;50.362;7.568;2023-06-10T01:20:23;5.03;;;4.18;;
51475;SDS011;37554;50.362;7.568;2023-06-10T01:22:49;4.30;;;3.95;;
51475;SDS011;37554;50.362;7.568;2023-06-10T01:25:16;5.00;;;4.32;;
51475;SDS011;37554;50.362;7.568;2023-06-10T01:27:42;4.80;;;4.30;;
51475;SDS011;37554;50.362;7.568;2023-06-10T01:30:19;5.50;;;4.35;;
51475;SDS011;37554;50.362;7.568;2023-06-10T01:32:54;4.90;;;4.18;;
51475;SDS011;37554;50.362;7.568;2023-06-10T01:35:23;5.13;;;4.22;;
51475;SDS011;37554;50.362;7.568;2023-06-10T01:37:51;4.78;;;4.28;;
51475;SDS011;37554;50.362;7.568;2023-06-10T01:40:19;5.45;;;4.43;;
51475;SDS011;37554;50.362;7.568;2023-06-10T01:42:48;4.93;;;4.25;;
51475;SDS011;37554;50.362;7.568;2023-06-10T01:45:14;4.93;;;4.43;;
51475;SDS011;37554;50.362;7.568;2023-06-10T01:47:40;5.03;;;3.90;;
51475;SDS011;37554;50.362;7.568;2023-06-10T01:50:06;4.97;;;4.05;;
51475;SDS011;37554;50.362;7.568;2023-06-10T01:52:32;4.80;;;3.95;;
51475;SDS011;37554;50.362;7.568;2023-06-10T01:54:57;4.85;;;4.30;;
51475;SDS011;37554;50.362;7.568;2023-06-10T01:57:23;5.35;;;4.38;;
51475;SDS011;37554;50.362;7.568;2023-06-10T01:59:49;4.53;;;4.13;;
51475;SDS011;37554;50.362;7.568;2023-06-10T02:02:14;4.40;;;4.10;;
51475;SDS011;37554;50.362;7.568;2023-06-10T02:04:40;7.78;;;4.00;;
51475;SDS011;37554;50.362;7.568;2023-06-10T02:07:06;4.38;;;3.97;;
51475;SDS011;37554;50.362;7.568;2023-06-10T02:09:32;4.07;;;3.78;;
51475;SDS011;37554;50.362;7.568;2023-06-10T02:12:00;4.65;;;4.30;;
51475;SDS011;37554;50.362;7.568;2023-06-10T02:14:29;4.70;;;4.30;;
51475;SDS011;37554;50.362;7.568;2023-06-10T02:16:55;4.22;;;3.92;;
51475;SDS011;37554;50.362;7.568;2023-06-10T02:19:22;5.30;;;4.80;;
51475;SDS011;37554;50.362;7.568;2023-06-10T02:21:48;5.75;;;4.25;;
51475;SDS011;37554;50.362;7.568;2023-06-10T02:24:14;4.88;;;4.32;;
51475;SDS011;37554;50.362;7.568;2023-06-10T02:26:40;4.43;;;4.03;;
51475;SDS011;37554;50.362;7.568;2023-06-10T02:29:05;5.63;;;4.40;;
51475;SDS011;37554;50.362;7.568;2023-06-10T02:31:31;4.72;;;4.32;;
51475;SDS011;37554;50.362;7.568;2023-06-10T02:34:00;5.07;;;4.57;;
51475;SDS011;37554;50.362;7.568;2023-06-10T02:36:26;5.18;;;4.50;;
51475;SDS011;37554;50.362;7.568;2023-06-10T02:38:52;4.93;;;4.28;;
51475;SDS011;37554;50.362;7.568;2023-06-10T02:41:18;4.70;;;4.30;;
51475;SDS011;37554;50.362;7.568;2023-06-10T02:43:44;4.43;;;3.97;;
51475;SDS011;37554;50.362;7.568;2023-06-10T02:46:09;4.25;;;3.95;;
51475;SDS011;37554;50.362;7.568;2023-06-10T02:48:41;4.70;;;4.30;;
51475;SDS011;37554;50.362;7.568;2023-06-10T02:51:08;5.03;;;4.55;;
51475;SDS011;37554;50.362;7.568;2023-06-10T02:53:34;4.78;;;4.35;;
51475;SDS011;37554;50.362;7.568;2023-06-10T02:56:00;4.75;;;4.28;;
51475;SDS011;37554;50.362;7.568;2023-06-10T02:58:26;7.07;;;4.47;;
51475;SDS011;37554;50.362;7.568;2023-06-10T03:00:52;4.90;;;4.40;;
51475;SDS011;37554;50.362;7.568;2023-06-10T03:03:18;5.45;;;4.45;;
51475;SDS011;37554;50.362;7.568;2023-06-10T03:05:43;5.25;;;4.55;;
51475;SDS011;37554;50.362;7.568;2023-06-10T03:08:09;5.25;;;4.72;;
51475;SDS011;37554;50.362;7.568;2023-06-10T03:10:35;4.80;;;4.20;;
51475;SDS011;37554;50.362;7.568;2023-06-10T03:13:01;4.50;;;4.10;;
51475;SDS011;37554;50.362;7.568;2023-06-10T03:15:26;4.90;;;4.53;;
51475;SDS011;37554;50.362;7.568;2023-06-10T03:17:54;4.85;;;4.43;;
51475;SDS011;37554;50.362;7.568;2023-06-10T03:20:20;5.13;;;4.72;;
51475;SDS011;37554;50.362;7.568;2023-06-10T03:22:46;4.95;;;4.55;;
51475;SDS011;37554;50.362;7.568;2023-06-10T03:25:12;4.32;;;3.83;;
51475;SDS011;37554;50.362;7.568;2023-06-10T03:27:39;4.50;;;4.10;;
51475;SDS011;37554;50.362;7.568;2023-06-10T03:30:06;5.75;;;4.20;;
51475;SDS011;37554;50.362;7.568;2023-06-10T03:32:33;4.40;;;4.00;;
51475;SDS011;37554;50.362;7.568;2023-06-10T03:35:00;5.63;;;5.10;;
51475;SDS011;37554;50.362;7.568;2023-06-10T03:37:26;4.28;;;3.97;;
51475;SDS011;37554;50.362;7.568;2023-06-10T03:39:51;5.20;;;4.78;;
51475;SDS011;37554;50.362;7.568;2023-06-10T03:42:17;4.68;;;4.28;;
51475;SDS011;37554;50.362;7.568;2023-06-10T03:44:43;4.38;;;3.97;;
51475;SDS011;37554;50.362;7.568;2023-06-10T03:47:08;4.43;;;4.07;;
51475;SDS011;37554;50.362;7.568;2023-06-10T03:49:34;6.97;;;4.10;;
51475;SDS011;37554;50.362;7.568;2023-06-10T03:52:01;4.72;;;4.30;;
51475;SDS011;37554;50.362;7.568;2023-06-10T03:54:27;4.68;;;4.25;;
51475;SDS011;37554;50.362;7.568;2023-06-10T03:56:52;5.80;;;4.07;;
51475;SDS011;37554;50.362;7.568;2023-06-10T03:59:18;4.88;;;4.45;;
51475;SDS011;37554;50.362;7.568;2023-06-10T04:01:44;4.65;;;4.28;;
51475;SDS011;37554;50.362;7.568;2023-06-10T04:04:11;5.45;;;4.60;;
51475;SDS011;37554;50.362;7.568;2023-06-10T04:06:40;5.00;;;4.38;;
51475;SDS011;37554;50.362;7.568;2023-06-10T04:09:06;4.88;;;4.47;;
51475;SDS011;37554;50.362;7.568;2023-06-10T04:11:32;4.47;;;4.05;;
51475;SDS011;37554;50.362;7.568;2023-06-10T04:13:58;7.72;;;4.68;;
51475;SDS011;37554;50.362;7.568;2023-06-10T04:16:24;6.32;;;4.65;;
51475;SDS011;37554;50.362;7.568;2023-06-10T04:18:50;4.55;;;4.25;;
51475;SDS011;37554;50.362;7.568;2023-06-10T04:21:15;4.50;;;4.20;;
51475;SDS011;37554;50.362;7.568;2023-06-10T04:23:41;6.20;;;4.63;;
51475;SDS011;37554;50.362;7.568;2023-06-10T04:26:07;4.82;;;4.40;;
51475;SDS011;37554;50.362;7.568;2023-06-10T04:28:32;6.22;;;4.07;;
51475;SDS011;37554;50.362;7.568;2023-06-10T04:30:58;5.32;;;4.80;;
51475;SDS011;37554;50.362;7.568;2023-06-10T04:33:24;4.97;;;4.47;;
51475;SDS011;37554;50.362;7.568;2023-06-10T04:35:50;4.95;;;4.18;;
51475;SDS011;37554;50.362;7.568;2023-06-10T04:38:15;4.93;;;4.47;;
51475;SDS011;37554;50.362;7.568;2023-06-10T04:40:41;5.00;;;4.60;;
51475;SDS011;37554;50.362;7.568;2023-06-10T04:43:07;5.47;;;4.97;;
51475;SDS011;37554;50.362;7.568;2023-06-10T04:45:33;5.25;;;4.75;;
51475;SDS011;37554;50.362;7.568;2023-06-10T04:47:58;5.68;;;4.90;;
51475;SDS011;37554;50.362;7.568;2023-06-10T04:50:24;6.40;;;4.72;;
51475;SDS011;37554;50.362;7.568;2023-06-10T04:52:50;5.30;;;4.90;;
51475;SDS011;37554;50.362;7.568;2023-06-10T04:55:15;5.82;;;5.03;;
51475;SDS011;37554;50.362;7.568;2023-06-10T04:57:41;5.22;;;4.82;;
51475;SDS011;37554;50.362;7.568;2023-06-10T05:00:07;5.07;;;4.65;;
51475;SDS011;37554;50.362;7.568;2023-06-10T05:02:33;5.00;;;4.50;;
51475;SDS011;37554;50.362;7.568;2023-06-10T05:04:59;5.30;;;4.80;;
51475;SDS011;37554;50.362;7.568;2023-06-10T05:07:25;8.40;;;4.97;;
51475;SDS011;37554;50.362;7.568;2023-06-10T05:09:50;7.68;;;4.65;;
51475;SDS011;37554;50.362;7.568;2023-06-10T05:12:16;6.18;;;4.82;;
51475;SDS011;37554;50.362;7.568;2023-06-10T05:14:42;5.28;;;4.88;;
51475;SDS011;37554;50.362;7.568;2023-06-10T05:17:07;7.35;;;5.13;;
51475;SDS011;37554;50.362;7.568;2023-06-10T05:19:33;5.88;;;4.80;;
51475;SDS011;37554;50.362;7.568;2023-06-10T05:22:00;5.88;;;4.70;;
51475;SDS011;37554;50.362;7.568;2023-06-10T05:24:27;5.50;;;5.00;;
51475;SDS011;37554;50.362;7.568;2023-06-10T05:26:53;5.78;;;4.85;;
51475;SDS011;37554;50.362;7.568;2023-06-10T05:29:19;5.20;;;4.70;;
51475;SDS011;37554;50.362;7.568;2023-06-10T05:31:44;5.15;;;4.65;;
51475;SDS011;37554;50.362;7.568;2023-06-10T05:34:10;5.55;;;5.05;;
51475;SDS011;37554;50.362;7.568;2023-06-10T05:36:36;6.03;;;4.78;;
51475;SDS011;37554;50.362;7.568;2023-06-10T05:39:02;5.05;;;4.63;;
51475;SDS011;37554;50.362;7.568;2023-06-10T05:41:27;5.18;;;4.78;;
51475;SDS011;37554;50.362;7.568;2023-06-10T05:43:53;5.43;;;4.93;;
51475;SDS011;37554;50.362;7.568;2023-06-10T05:46:19;5.72;;;5.22;;
51475;SDS011;37554;50.362;7.568;2023-06-10T05:48:45;5.53;;;5.13;;
51475;SDS011;37554;50.362;7.568;2023-06-10T05:51:11;5.07;;;4.68;;
51475;SDS011;37554;50.362;7.568;2023-06-10T05:53:36;7.13;;;5.32;;
51475;SDS011;37554;50.362;7.568;2023-06-10T05:56:03;4.93;;;4.53;;
51475;SDS011;37554;50.362;7.568;2023-06-10T05:58:29;4.80;;;4.43;;
51475;SDS011;37554;50.362;7.568;2023-06-10T06:00:54;5.50;;;5.00;;
51475;SDS011;37554;50.362;7.568;2023-06-10T06:03:20;5.53;;;4.38;;
51475;SDS011;37554;50.362;7.568;2023-06-10T06:05:46;7.55;;;4.30;;
51475;SDS011;37554;50.362;7.568;2023-06-10T06:08:15;5.13;;;4.53;;
51475;SDS011;37554;50.362;7.568;2023-06-10T06:10:43;4.50;;;4.10;;
51475;SDS011;37554;50.362;7.568;2023-06-10T06:13:12;4.68;;;4.28;;
51475;SDS011;37554;50.362;7.568;2023-06-10T06:15:38;5.10;;;4.53;;
51475;SDS011;37554;50.362;7.568;2023-06-10T06:18:04;7.55;;;4.32;;
51475;SDS011;37554;50.362;7.568;2023-06-10T06:20:30;7.88;;;4.60;;
51475;SDS011;37554;50.362;7.568;2023-06-10T06:22:55;5.22;;;4.53;;
51475;SDS011;37554;50.362;7.568;2023-06-10T06:25:21;5.95;;;4.68;;
51475;SDS011;37554;50.362;7.568;2023-06-10T06:27:48;7.57;;;4.47;;
51475;SDS011;37554;50.362;7.568;2023-06-10T06:30:13;3.88;;;3.58;;
51475;SDS011;37554;50.362;7.568;2023-06-10T06:32:39;5.18;;;3.90;;
51475;SDS011;37554;50.362;7.568;2023-06-10T06:35:05;4.07;;;3.78;;
51475;SDS011;37554;50.362;7.568;2023-06-10T06:37:32;7.53;;;4.80;;
51475;SDS011;37554;50.362;7.568;2023-06-10T06:39:58;4.07;;;3.67;;
51475;SDS011;37554;50.362;7.568;2023-06-10T06:42:24;4.32;;;3.92;;
51475;SDS011;37554;50.362;7.568;2023-06-10T06:44:50;5.50;;;3.92;;
51475;SDS011;37554;50.362;7.568;2023-06-10T06:47:15;5.88;;;3.97;;
51475;SDS011;37554;50.362;7.568;2023-06-10T06:49:45;4.43;;;3.90;;
51475;SDS011;37554;50.362;7.568;2023-06-10T06:52:14;5.75;;;3.92;;
51475;SDS011;37554;50.362;7.568;2023-06-10T06:54:40;8.02;;;4.20;;
51475;SDS011;37554;50.362;7.568;2023-06-10T06:57:06;6.63;;;4.10;;
51475;SDS011;37554;50.362;7.568;2023-06-10T06:59:32;4.57;;;4.18;;
51475;SDS011;37554;50.362;7.568;2023-06-10T07:01:58;4.22;;;3.83;;
51475;SDS011;37554;50.362;7.568;2023-06-10T07:04:23;4.60;;;3.90;;
51475;SDS011;37554;50.362;7.568;2023-06-10T07:06:49;4.50;;;4.10;;
51475;SDS011;37554;50.362;7.568;2023-06-10T07:09:15;4.45;;;4.05;;
51475;SDS011;37554;50.362;7.568;2023-06-10T07:11:41;6.30;;;4.35;;
51475;SDS011;37554;50.362;7.568;2023-06-10T07:14:07;7.07;;;3.72;;
51475;SDS011;37554;50.362;7.568;2023-06-10T07:16:32;4.65;;;4.20;;
51475;SDS011;37554;50.362;7.568;2023-06-10T07:18:58;4.50;;;4.00;;
51475;SDS011;37554;50.362;7.568;2023-06-10T07:21:24;4.38;;;4.00;;
51475;SDS011;37554;50.362;7.568;2023-06-10T07:23:50;3.88;;;3.53;;
51475;SDS011;37554;50.362;7.568;2023-06-10T07:26:18;4.60;;;3.75;;
51475;SDS011;37554;50.362;7.568;2023-06-10T07:28:44;4.97;;;4.00;;
51475;SDS011;37554;50.362;7.568;2023-06-10T07:31:10;4.03;;;3.58;;
51475;SDS011;37554;50.362;7.568;2023-06-10T07:33:37;3.92;;;3.53;;
51475;SDS011;37554;50.362;7.568;2023-06-10T07:36:04;3.28;;;3.00;;
51475;SDS011;37554;50.362;7.568;2023-06-10T07:38:30;3.83;;;3.00;;
51475;SDS011;37554;50.362;7.568;2023-06-10T07:40:56;4.80;;;3.63;;
51475;SDS011;37554;50.362;7.568;2023-06-10T07:43:21;4.00;;;3.67;;
51475;SDS011;37554;50.362;7.568;2023-06-10T07:45:47;4.20;;;3.55;;
51475;SDS011;37554;50.362;7.568;2023-06-10T07:48:13;3.70;;;3.38;;
51475;SDS011;37554;50.362;7.568;2023-06-10T07:50:38;3.53;;;3.22;;
51475;SDS011;37554;50.362;7.568;2023-06-10T07:53:05;3.70;;;3.40;;
51475;SDS011;37554;50.362;7.568;2023-06-10T07:55:30;3.85;;;3.30;;
51475;SDS011;37554;50.362;7.568;2023-06-10T07:57:56;3.92;;;3.40;;
51475;SDS011;37554;50.362;7.568;2023-06-10T08:00:22;5.07;;;3.45;;
51475;SDS011;37554;50.362;7.568;2023-06-10T08:02:48;3.70;;;3.40;;
51475;SDS011;37554;50.362;7.568;2023-06-10T08:05:14;5.95;;;3.40;;
51475;SDS011;37554;50.362;7.568;2023-06-10T08:07:39;3.38;;;3.08;;
51475;SDS011;37554;50.362;7.568;2023-06-10T08:10:06;3.30;;;2.95;;
51475;SDS011;37554;50.362;7.568;2023-06-10T08:12:32;6.50;;;2.80;;
51475;SDS011;37554;50.362;7.568;2023-06-10T08:14:58;3.10;;;2.83;;
51475;SDS011;37554;50.362;7.568;2023-06-10T08:17:24;4.72;;;3.20;;
51475;SDS011;37554;50.362;7.568;2023-06-10T08:19:50;4.50;;;3.40;;
51475;SDS011;37554;50.362;7.568;2023-06-10T08:22:16;7.00;;;3.63;;
51475;SDS011;37554;50.362;7.568;2023-06-10T08:24:41;3.20;;;2.90;;
51475;SDS011;37554;50.362;7.568;2023-06-10T08:27:07;4.82;;;3.03;;
51475;SDS011;37554;50.362;7.568;2023-06-10T08:29:33;3.53;;;3.22;;
51475;SDS011;37554;50.362;7.568;2023-06-10T08:31:59;3.78;;;3.22;;
51475;SDS011;37554;50.362;7.568;2023-06-10T08:34:25;3.10;;;2.80;;
51475;SDS011;37554;50.362;7.568;2023-06-10T08:36:51;3.08;;;2.88;;
51475;SDS011;37554;50.362;7.568;2023-06-10T08:39:18;3.60;;;3.10;;
51475;SDS011;37554;50.362;7.568;2023-06-10T08:41:56;3.15;;;2.90;;
51475;SDS011;37554;50.362;7.568;2023-06-10T08:44:53;3.10;;;2.85;;
51475;SDS011;37554;50.362;7.568;2023-06-10T08:47:24;3.10;;;2.83;;
51475;SDS011;37554;50.362;7.568;2023-06-10T08:49:50;3.20;;;3.00;;
51475;SDS011;37554;50.362;7.568;2023-06-10T08:52:21;3.33;;;2.90;;
51475;SDS011;37554;50.362;7.568;2023-06-10T08:54:57;4.68;;;3.17;;
51475;SDS011;37554;50.362;7.568;2023-06-10T08:57:26;2.75;;;2.55;;
51475;SDS011;37554;50.362;7.568;2023-06-10T08:59:55;3.17;;;2.63;;
51475;SDS011;37554;50.362;7.568;2023-06-10T09:02:22;3.10;;;2.90;;
51475;SDS011;37554;50.362;7.568;2023-06-10T09:04:49;2.95;;;2.65;;
51475;SDS011;37554;50.362;7.568;2023-06-10T09:07:15;2.83;;;2.63;;
51475;SDS011;37554;50.362;7.568;2023-06-10T09:09:42;2.78;;;2.47;;
51475;SDS011;37554;50.362;7.568;2023-06-10T09:12:09;2.83;;;2.63;;
51475;SDS011;37554;50.362;7.568;2023-06-10T09:14:35;2.85;;;2.65;;
51475;SDS011;37554;50.362;7.568;2023-06-10T09:17:01;2.58;;;2.35;;
51475;SDS011;37554;50.362;7.568;2023-06-10T09:19:28;3.83;;;2.42;;
51475;SDS011;37554;50.362;7.568;2023-06-10T09:21:54;2.88;;;2.67;;
51475;SDS011;37554;50.362;7.568;2023-06-10T09:24:23;2.80;;;2.50;;
51475;SDS011;37554;50.362;7.568;2023-06-10T09:26:50;2.92;;;2.28;;
51475;SDS011;37554;50.362;7.568;2023-06-10T09:29:26;2.40;;;2.28;;
51475;SDS011;37554;50.362;7.568;2023-06-10T09:31:52;2.90;;;2.70;;
51475;SDS011;37554;50.362;7.568;2023-06-10T09:34:17;3.72;;;2.58;;
51475;SDS011;37554;50.362;7.568;2023-06-10T09:36:43;2.50;;;2.30;;
51475;SDS011;37554;50.362;7.568;2023-06-10T09:39:14;2.60;;;2.40;;
51475;SDS011;37554;50.362;7.568;2023-06-10T09:41:41;2.47;;;2.28;;
51475;SDS011;37554;50.362;7.568;2023-06-10T09:44:17;3.22;;;2.50;;
51475;SDS011;37554;50.362;7.568;2023-06-10T09:46:49;3.58;;;2.33;;
51475;SDS011;37554;50.362;7.568;2023-06-10T09:49:16;3.08;;;2.13;;
51475;SDS011;37554;50.362;7.568;2023-06-10T09:51:48;2.03;;;1.92;;
51475;SDS011;37554;50.362;7.568;2023-06-10T09:54:15;2.13;;;1.85;;
51475;SDS011;37554;50.362;7.568;2023-06-10T09:56:41;2.65;;;2.22;;
51475;SDS011;37554;50.362;7.568;2023-06-10T09:59:07;2.35;;;2.15;;
51475;SDS011;37554;50.362;7.568;2023-06-10T10:01:34;1.98;;;1.88;;
51475;SDS011;37554;50.362;7.568;2023-06-10T10:03:59;2.95;;;2.47;;
51475;SDS011;37554;50.362;7.568;2023-06-10T10:06:26;2.17;;;1.98;;
51475;SDS011;37554;50.362;7.568;2023-06-10T10:08:54;1.98;;;1.88;;
51475;SDS011;37554;50.362;7.568;2023-06-10T10:11:21;1.85;;;1.75;;
51475;SDS011;37554;50.362;7.568;2023-06-10T10:13:48;1.80;;;1.65;;
51475;SDS011;37554;50.362;7.568;2023-06-10T10:16:16;2.17;;;1.95;;
51475;SDS011;37554;50.362;7.568;2023-06-10T10:18:49;1.83;;;1.73;;
51475;SDS011;37554;50.362;7.568;2023-06-10T10:21:21;1.85;;;1.73;;
51475;SDS011;37554;50.362;7.568;2023-06-10T10:23:53;2.90;;;1.65;;
51475;SDS011;37554;50.362;7.568;2023-06-10T10:26:33;1.98;;;1.80;;
51475;SDS011;37554;50.362;7.568;2023-06-10T10:32:00;1.90;;;1.70;;
51475;SDS011;37554;50.362;7.568;2023-06-10T10:34:30;1.60;;;1.50;;
51475;SDS011;37554;50.362;7.568;2023-06-10T10:37:17;4.15;;;2.00;;
51475;SDS011;37554;50.362;7.568;2023-06-10T10:39:44;1.85;;;1.30;;
51475;SDS011;37554;50.362;7.568;2023-06-10T10:42:10;2.05;;;1.65;;
51475;SDS011;37554;50.362;7.568;2023-06-10T10:44:39;3.47;;;1.70;;
51475;SDS011;37554;50.362;7.568;2023-06-10T10:47:09;2.72;;;1.60;;
51475;SDS011;37554;50.362;7.568;2023-06-10T10:49:36;3.03;;;1.48;;
51475;SDS011;37554;50.362;7.568;2023-06-10T10:52:03;1.48;;;1.38;;
51475;SDS011;37554;50.362;7.568;2023-06-10T10:54:33;2.03;;;1.80;;
51475;SDS011;37554;50.362;7.568;2023-06-10T11:04:56;1.65;;;1.52;;
51475;SDS011;37554;50.362;7.568;2023-06-10T11:07:24;2.85;;;1.60;;
51475;SDS011;37554;50.362;7.568;2023-06-10T11:15:17;1.20;;;1.10;;
51475;SDS011;37554;50.362;7.568;2023-06-10T11:20:43;1.40;;;1.30;;
51475;SDS011;37554;50.362;7.568;2023-06-10T11:26:11;1.40;;;1.30;;
51475;SDS011;37554;50.362;7.568;2023-06-10T11:28:38;2.00;;;1.30;;
51475;SDS011;37554;50.362;7.568;2023-06-10T11:31:04;1.88;;;1.48;;
51475;SDS011;37554;50.362;7.568;2023-06-10T11:33:31;1.77;;;1.40;;
51475;SDS011;37554;50.362;7.568;2023-06-10T11:35:56;1.60;;;1.30;;
51475;SDS011;37554;50.362;7.568;2023-06-10T11:38:23;1.35;;;1.23;;
51475;SDS011;37554;50.362;7.568;2023-06-10T11:40:49;1.75;;;1.60;;
51475;SDS011;37554;50.362;7.568;2023-06-10T11:43:16;1.50;;;1.40;;
51475;SDS011;37554;50.362;7.568;2023-06-10T11:45:42;1.98;;;1.33;;
51475;SDS011;37554;50.362;7.568;2023-06-10T11:48:09;1.60;;;1.50;;
51475;SDS011;37554;50.362;7.568;2023-06-10T11:50:35;1.48;;;1.38;;
51475;SDS011;37554;50.362;7.568;2023-06-10T11:53:02;1.40;;;1.30;;
51475;SDS011;37554;50.362;7.568;2023-06-10T11:55:43;2.80;;;1.10;;
51475;SDS011;37554;50.362;7.568;2023-06-10T11:58:20;1.75;;;1.10;;
51475;SDS011;37554;50.362;7.568;2023-06-10T12:00:47;2.45;;;1.30;;
51475;SDS011;37554;50.362;7.568;2023-06-10T12:03:14;4.25;;;1.58;;
51475;SDS011;37554;50.362;7.568;2023-06-10T12:05:40;1.70;;;1.17;;
51475;SDS011;37554;50.362;7.568;2023-06-10T12:08:11;2.53;;;1.30;;
51475;SDS011;37554;50.362;7.568;2023-06-10T12:10:41;2.38;;;1.13;;
51475;SDS011;37554;50.362;7.568;2023-06-10T12:13:08;1.38;;;1.27;;
51475;SDS011;37554;50.362;7.568;2023-06-10T12:15:34;2.00;;;1.33;;
51475;SDS011;37554;50.362;7.568;2023-06-10T12:18:00;3.63;;;1.33;;
51475;SDS011;37554;50.362;7.568;2023-06-10T12:20:30;1.88;;;1.50;;
51475;SDS011;37554;50.362;7.568;2023-06-10T12:23:00;1.25;;;1.10;;
51475;SDS011;37554;50.362;7.568;2023-06-10T12:25:33;1.60;;;1.50;;
51475;SDS011;37554;50.362;7.568;2023-06-10T12:27:59;1.30;;;1.20;;
51475;SDS011;37554;50.362;7.568;2023-06-10T12:30:25;1.77;;;1.42;;
51475;SDS011;37554;50.362;7.568;2023-06-10T12:32:52;1.48;;;1.38;;
51475;SDS011;37554;50.362;7.568;2023-06-10T12:35:19;1.80;;;1.38;;
51475;SDS011;37554;50.362;7.568;2023-06-10T12:38:02;1.50;;;1.40;;
51475;SDS011;37554;50.362;7.568;2023-06-10T12:40:32;1.10;;;1.00;;
51475;SDS011;37554;50.362;7.568;2023-06-10T12:42:59;1.33;;;1.20;;
51475;SDS011;37554;50.362;7.568;2023-06-10T12:45:30;1.30;;;1.20;;
51475;SDS011;37554;50.362;7.568;2023-06-10T12:48:07;1.52;;;1.38;;
51475;SDS011;37554;50.362;7.568;2023-06-10T12:50:37;3.75;;;1.23;;
51475;SDS011;37554;50.362;7.568;2023-06-10T12:53:05;1.30;;;1.20;;
51475;SDS011;37554;50.362;7.568;2023-06-10T12:55:31;1.42;;;1.33;;
51475;SDS011;37554;50.362;7.568;2023-06-10T12:57:57;1.08;;;1.08;;
51475;SDS011;37554;50.362;7.568;2023-06-10T13:00:23;1.30;;;1.20;;
51475;SDS011;37554;50.362;7.568;2023-06-10T13:02:51;2.17;;;1.15;;
51475;SDS011;37554;50.362;7.568;2023-06-10T13:05:20;2.20;;;1.15;;
51475;SDS011;37554;50.362;7.568;2023-06-10T13:07:46;2.53;;;1.33;;
51475;SDS011;37554;50.362;7.568;2023-06-10T13:10:15;2.13;;;1.10;;
51475;SDS011;37554;50.362;7.568;2023-06-10T13:12:42;1.83;;;1.33;;
51475;SDS011;37554;50.362;7.568;2023-06-10T13:15:08;1.45;;;1.25;;
51475;SDS011;37554;50.362;7.568;2023-06-10T13:17:34;1.33;;;1.20;;
51475;SDS011;37554;50.362;7.568;2023-06-10T13:20:02;1.70;;;1.25;;
51475;SDS011;37554;50.362;7.568;2023-06-10T13:22:31;1.20;;;1.10;;
51475;SDS011;37554;50.362;7.568;2023-06-10T13:25:01;1.38;;;1.23;;
51475;SDS011;37554;50.362;7.568;2023-06-10T13:27:31;1.88;;;1.48;;
51475;SDS011;37554;50.362;7.568;2023-06-10T13:29:57;1.88;;;1.45;;
51475;SDS011;37554;50.362;7.568;2023-06-10T13:32:23;2.08;;;1.20;;
51475;SDS011;37554;50.362;7.568;2023-06-10T13:34:48;1.48;;;1.38;;
51475;SDS011;37554;50.362;7.568;2023-06-10T13:37:14;2.38;;;1.38;;
51475;SDS011;37554;50.362;7.568;2023-06-10T13:39:43;1.52;;;1.15;;
51475;SDS011;37554;50.362;7.568;2023-06-10T13:42:10;1.15;;;1.02;;
51475;SDS011;37554;50.362;7.568;2023-06-10T13:44:36;1.40;;;1.30;;
51475;SDS011;37554;50.362;7.568;2023-06-10T13:47:02;2.45;;;1.25;;
51475;SDS011;37554;50.362;7.568;2023-06-10T13:49:28;1.45;;;1.30;;
51475;SDS011;37554;50.362;7.568;2023-06-10T13:51:54;3.00;;;1.20;;
51475;SDS011;37554;50.362;7.568;2023-06-10T13:54:19;2.17;;;1.77;;
51475;SDS011;37554;50.362;7.568;2023-06-10T13:56:46;1.35;;;1.25;;
51475;SDS011;37554;50.362;7.568;2023-06-10T13:59:12;1.40;;;1.30;;
51475;SDS011;37554;50.362;7.568;2023-06-10T14:01:37;1.40;;;1.27;;
51475;SDS011;37554;50.362;7.568;2023-06-10T14:04:04;1.50;;;1.27;;
51475;SDS011;37554;50.362;7.568;2023-06-10T14:06:30;2.42;;;1.20;;
51475;SDS011;37554;50.362;7.568;2023-06-10T14:08:57;1.35;;;1.25;;
51475;SDS011;37554;50.362;7.568;2023-06-10T14:11:23;1.38;;;1.27;;
51475;SDS011;37554;50.362;7.568;2023-06-10T14:13:48;1.52;;;1.30;;
51475;SDS011;37554;50.362;7.568;2023-06-10T14:16:14;2.05;;;1.42;;
51475;SDS011;37554;50.362;7.568;2023-06-10T14:18:39;1.40;;;1.30;;
51475;SDS011;37554;50.362;7.568;2023-06-10T14:21:05;1.60;;;1.20;;
51475;SDS011;37554;50.362;7.568;2023-06-10T14:23:31;1.67;;;1.30;;
51475;SDS011;37554;50.362;7.568;2023-06-10T14:25:56;1.40;;;1.30;;
51475;SDS011;37554;50.362;7.568;2023-06-10T14:28:22;1.60;;;1.40;;
51475;SDS011;37554;50.362;7.568;2023-06-10T14:30:49;1.23;;;1.13;;
51475;SDS011;37554;50.362;7.568;2023-06-10T14:33:14;1.30;;;1.20;;
51475;SDS011;37554;50.362;7.568;2023-06-10T14:35:40;1.20;;;1.10;;
51475;SDS011;37554;50.362;7.568;2023-06-10T14:38:07;1.67;;;1.35;;
51475;SDS011;37554;50.362;7.568;2023-06-10T14:40:33;1.55;;;1.45;;
51475;SDS011;37554;50.362;7.568;2023-06-10T14:42:59;1.98;;;1.30;;
51475;SDS011;37554;50.362;7.568;2023-06-10T14:45:26;1.33;;;1.23;;
51475;SDS011;37554;50.362;7.568;2023-06-10T14:47:52;1.38;;;1.27;;
51475;SDS011;37554;50.362;7.568;2023-06-10T14:50:17;1.33;;;1.20;;
51475;SDS011;37554;50.362;7.568;2023-06-10T14:52:43;1.25;;;1.15;;
51475;SDS011;37554;50.362;7.568;2023-06-10T14:55:08;1.83;;;1.40;;
51475;SDS011;37554;50.362;7.568;2023-06-10T14:57:34;1.85;;;1.05;;
51475;SDS011;37554;50.362;7.568;2023-06-10T15:00:00;1.35;;;1.10;;
51475;SDS011;37554;50.362;7.568;2023-06-10T15:02:26;1.42;;;1.33;;
51475;SDS011;37554;50.362;7.568;2023-06-10T15:04:51;1.00;;;0.93;;
51475;SDS011;37554;50.362;7.568;2023-06-10T15:07:17;1.40;;;1.30;;
51475;SDS011;37554;50.362;7.568;2023-06-10T15:09:43;1.30;;;1.20;;
51475;SDS011;37554;50.362;7.568;2023-06-10T15:12:09;2.25;;;1.48;;
51475;SDS011;37554;50.362;7.568;2023-06-10T15:14:35;1.38;;;1.27;;
51475;SDS011;37554;50.362;7.568;2023-06-10T15:17:01;1.40;;;1.17;;